sensor_id;sensor_type;location;lat;lon;timestamp;temperature;humidity
37842;DHT22;23682;53.508;10.476;2022-07-23T00:00:17;17.20;99.90
37842;DHT22;23682;53.508;10.476;2022-07-23T00:02:44;17.30;99.90
37842;DHT22;23682;53.508;10.476;2022-07-23T00:05:11;17.20;99.90
37842;DHT22;23682;53.508;10.476;2022-07-23T00:07:38;17.30;99.90
37842;DHT22;23682;53.508;10.476;2022-07-23T00:10:06;17.20;99.90
37842;DHT22;23682;53.508;10.476;2022-07-23T00:12:33;17.30;99.90
37842;DHT22;23682;53.508;10.476;2022-07-23T00:14:59;17.30;99.90
37842;DHT22;23682;53.508;10.476;2022-07-23T00:17:26;17.30;99.90
37842;DHT22;23682;53.508;10.476;2022-07-23T00:19:53;17.30;99.90
37842;DHT22;23682;53.508;10.476;2022-07-23T00:22:20;17.20;99.90
37842;DHT22;23682;53.508;10.476;2022-07-23T00:24:47;17.10;99.90
37842;DHT22;23682;53.508;10.476;2022-07-23T00:27:34;17.10;99.90
37842;DHT22;23682;53.508;10.476;2022-07-23T00:30:01;17.10;99.90
37842;DHT22;23682;53.508;10.476;2022-07-23T00:32:27;17.00;99.90
37842;DHT22;23682;53.508;10.476;2022-07-23T00:35:14;17.10;99.90
37842;DHT22;23682;53.508;10.476;2022-07-23T00:37:42;17.20;99.90
37842;DHT22;23682;53.508;10.476;2022-07-23T00:40:09;17.10;99.90
37842;DHT22;23682;53.508;10.476;2022-07-23T00:42:37;17.10;99.90
37842;DHT22;23682;53.508;10.476;2022-07-23T00:45:04;17.10;99.90
37842;DHT22;23682;53.508;10.476;2022-07-23T00:47:31;17.10;99.90
37842;DHT22;23682;53.508;10.476;2022-07-23T00:49:59;17.00;99.90
37842;DHT22;23682;53.508;10.476;2022-07-23T00:52:25;16.90;99.90
37842;DHT22;23682;53.508;10.476;2022-07-23T00:54:52;17.00;99.90
37842;DHT22;23682;53.508;10.476;2022-07-23T00:57:19;17.00;99.90
37842;DHT22;23682;53.508;10.476;2022-07-23T00:59:54;17.10;99.90
37842;DHT22;23682;53.508;10.476;2022-07-23T01:02:21;17.00;99.90
37842;DHT22;23682;53.508;10.476;2022-07-23T01:04:48;16.90;99.90
37842;DHT22;23682;53.508;10.476;2022-07-23T01:07:15;16.80;99.90
37842;DHT22;23682;53.508;10.476;2022-07-23T01:09:43;16.90;99.90
37842;DHT22;23682;53.508;10.476;2022-07-23T01:12:10;16.80;99.90
37842;DHT22;23682;53.508;10.476;2022-07-23T01:14:37;16.90;99.90
37842;DHT22;23682;53.508;10.476;2022-07-23T01:17:04;16.90;99.90
37842;DHT22;23682;53.508;10.476;2022-07-23T01:19:32;16.90;99.90
37842;DHT22;23682;53.508;10.476;2022-07-23T01:22:02;16.90;99.90
37842;DHT22;23682;53.508;10.476;2022-07-23T01:24:29;17.00;99.90
37842;DHT22;23682;53.508;10.476;2022-07-23T01:27:04;17.00;99.90
37842;DHT22;23682;53.508;10.476;2022-07-23T01:29:34;17.00;99.90
37842;DHT22;23682;53.508;10.476;2022-07-23T01:32:06;17.00;99.90
37842;DHT22;23682;53.508;10.476;2022-07-23T01:34:33;16.90;99.90
37842;DHT22;23682;53.508;10.476;2022-07-23T01:36:59;17.00;99.90
37842;DHT22;23682;53.508;10.476;2022-07-23T01:39:27;16.90;99.90
37842;DHT22;23682;53.508;10.476;2022-07-23T01:41:54;16.90;99.90
37842;DHT22;23682;53.508;10.476;2022-07-23T01:44:23;16.90;99.90
37842;DHT22;23682;53.508;10.476;2022-07-23T01:46:50;16.80;99.90
37842;DHT22;23682;53.508;10.476;2022-07-23T01:49:19;16.70;99.90
37842;DHT22;23682;53.508;10.476;2022-07-23T01:51:57;16.70;99.90
37842;DHT22;23682;53.508;10.476;2022-07-23T01:54:42;16.70;99.90
37842;DHT22;23682;53.508;10.476;2022-07-23T01:57:09;16.60;99.90
37842;DHT22;23682;53.508;10.476;2022-07-23T01:59:37;16.60;99.90
37842;DHT22;23682;53.508;10.476;2022-07-23T02:02:06;16.60;99.90
37842;DHT22;23682;53.508;10.476;2022-07-23T02:04:33;16.60;99.90
37842;DHT22;23682;53.508;10.476;2022-07-23T02:07:04;16.70;99.90
37842;DHT22;23682;53.508;10.476;2022-07-23T02:09:32;16.60;99.90
37842;DHT22;23682;53.508;10.476;2022-07-23T02:11:59;16.60;99.90
37842;DHT22;23682;53.508;10.476;2022-07-23T02:14:26;16.60;99.90
37842;DHT22;23682;53.508;10.476;2022-07-23T02:16:53;16.50;99.90
37842;DHT22;23682;53.508;10.476;2022-07-23T02:19:20;16.50;99.90
37842;DHT22;23682;53.508;10.476;2022-07-23T02:21:47;16.50;99.90
37842;DHT22;23682;53.508;10.476;2022-07-23T02:24:14;16.60;99.90
37842;DHT22;23682;53.508;10.476;2022-07-23T02:26:42;16.60;99.90
37842;DHT22;23682;53.508;10.476;2022-07-23T02:29:09;16.60;99.90
37842;DHT22;23682;53.508;10.476;2022-07-23T02:31:36;16.60;99.90
37842;DHT22;23682;53.508;10.476;2022-07-23T02:34:03;16.60;99.90
37842;DHT22;23682;53.508;10.476;2022-07-23T02:36:30;16.60;99.90
37842;DHT22;23682;53.508;10.476;2022-07-23T02:38:57;16.50;99.90
37842;DHT22;23682;53.508;10.476;2022-07-23T02:41:26;16.40;99.90
37842;DHT22;23682;53.508;10.476;2022-07-23T02:43:53;16.50;99.90
37842;DHT22;23682;53.508;10.476;2022-07-23T02:46:21;16.50;99.90
37842;DHT22;23682;53.508;10.476;2022-07-23T02:48:48;16.50;99.90
37842;DHT22;23682;53.508;10.476;2022-07-23T02:51:15;16.40;99.90
37842;DHT22;23682;53.508;10.476;2022-07-23T02:53:50;16.40;99.90
37842;DHT22;23682;53.508;10.476;2022-07-23T02:56:17;16.30;99.90
37842;DHT22;23682;53.508;10.476;2022-07-23T02:58:43;16.30;99.90
37842;DHT22;23682;53.508;10.476;2022-07-23T03:01:10;16.20;99.90
37842;DHT22;23682;53.508;10.476;2022-07-23T03:03:37;16.20;99.90
37842;DHT22;23682;53.508;10.476;2022-07-23T03:06:04;16.20;99.90
37842;DHT22;23682;53.508;10.476;2022-07-23T03:08:31;16.20;99.90
37842;DHT22;23682;53.508;10.476;2022-07-23T03:10:58;16.10;99.90
37842;DHT22;23682;53.508;10.476;2022-07-23T03:13:25;16.10;99.90
37842;DHT22;23682;53.508;10.476;2022-07-23T03:15:52;16.00;99.90
37842;DHT22;23682;53.508;10.476;2022-07-23T03:18:19;16.00;99.90
37842;DHT22;23682;53.508;10.476;2022-07-23T03:20:46;15.90;99.90
37842;DHT22;23682;53.508;10.476;2022-07-23T03:23:13;15.90;99.90
37842;DHT22;23682;53.508;10.476;2022-07-23T03:25:41;15.90;99.90
37842;DHT22;23682;53.508;10.476;2022-07-23T03:28:09;15.90;99.90
37842;DHT22;23682;53.508;10.476;2022-07-23T03:30:39;15.80;99.90
37842;DHT22;23682;53.508;10.476;2022-07-23T03:33:06;15.80;99.90
37842;DHT22;23682;53.508;10.476;2022-07-23T03:35:32;15.80;99.90
37842;DHT22;23682;53.508;10.476;2022-07-23T03:38:14;15.70;99.90
37842;DHT22;23682;53.508;10.476;2022-07-23T03:40:41;15.70;99.90
37842;DHT22;23682;53.508;10.476;2022-07-23T03:43:08;15.70;99.90
37842;DHT22;23682;53.508;10.476;2022-07-23T03:45:35;15.60;99.90
37842;DHT22;23682;53.508;10.476;2022-07-23T03:48:03;15.60;99.90
37842;DHT22;23682;53.508;10.476;2022-07-23T03:50:30;15.60;99.90
37842;DHT22;23682;53.508;10.476;2022-07-23T03:52:56;15.60;99.90
37842;DHT22;23682;53.508;10.476;2022-07-23T03:55:23;15.70;99.90
37842;DHT22;23682;53.508;10.476;2022-07-23T03:57:50;15.70;99.90
37842;DHT22;23682;53.508;10.476;2022-07-23T04:00:17;15.80;99.90
37842;DHT22;23682;53.508;10.476;2022-07-23T04:02:48;15.80;99.90
37842;DHT22;23682;53.508;10.476;2022-07-23T04:05:16;15.80;99.90
37842;DHT22;23682;53.508;10.476;2022-07-23T04:07:48;15.80;99.90
37842;DHT22;23682;53.508;10.476;2022-07-23T04:10:15;15.80;99.90
37842;DHT22;23682;53.508;10.476;2022-07-23T04:12:42;15.90;99.90
37842;DHT22;23682;53.508;10.476;2022-07-23T04:15:09;15.80;99.90
37842;DHT22;23682;53.508;10.476;2022-07-23T04:17:36;15.90;99.90
37842;DHT22;23682;53.508;10.476;2022-07-23T04:20:03;15.80;99.90
37842;DHT22;23682;53.508;10.476;2022-07-23T04:22:36;15.80;99.90
37842;DHT22;23682;53.508;10.476;2022-07-23T04:25:04;16.10;99.90
37842;DHT22;23682;53.508;10.476;2022-07-23T04:27:31;16.20;99.90
37842;DHT22;23682;53.508;10.476;2022-07-23T04:30:00;16.40;99.90
37842;DHT22;23682;53.508;10.476;2022-07-23T04:32:27;16.40;99.90
37842;DHT22;23682;53.508;10.476;2022-07-23T04:34:54;16.40;99.90
37842;DHT22;23682;53.508;10.476;2022-07-23T04:37:22;16.30;99.90
37842;DHT22;23682;53.508;10.476;2022-07-23T04:39:49;16.30;99.90
37842;DHT22;23682;53.508;10.476;2022-07-23T04:42:15;16.40;99.90
37842;DHT22;23682;53.508;10.476;2022-07-23T04:44:42;16.30;99.90
37842;DHT22;23682;53.508;10.476;2022-07-23T04:47:10;16.30;99.90
37842;DHT22;23682;53.508;10.476;2022-07-23T04:49:40;16.20;99.90
37842;DHT22;23682;53.508;10.476;2022-07-23T04:52:07;16.20;99.90
37842;DHT22;23682;53.508;10.476;2022-07-23T04:54:34;16.10;99.90
37842;DHT22;23682;53.508;10.476;2022-07-23T04:57:01;16.10;99.90
37842;DHT22;23682;53.508;10.476;2022-07-23T04:59:28;16.20;99.90
37842;DHT22;23682;53.508;10.476;2022-07-23T05:02:00;16.10;99.90
37842;DHT22;23682;53.508;10.476;2022-07-23T05:04:29;16.10;99.90
37842;DHT22;23682;53.508;10.476;2022-07-23T05:06:58;16.10;99.90
37842;DHT22;23682;53.508;10.476;2022-07-23T05:09:25;16.00;99.90
37842;DHT22;23682;53.508;10.476;2022-07-23T05:11:52;16.00;99.90
37842;DHT22;23682;53.508;10.476;2022-07-23T05:14:20;16.00;99.90
37842;DHT22;23682;53.508;10.476;2022-07-23T05:16:47;16.10;99.90
37842;DHT22;23682;53.508;10.476;2022-07-23T05:19:20;16.10;99.90
37842;DHT22;23682;53.508;10.476;2022-07-23T05:21:51;16.10;99.90
37842;DHT22;23682;53.508;10.476;2022-07-23T05:24:18;16.00;99.90
37842;DHT22;23682;53.508;10.476;2022-07-23T05:26:45;16.00;99.90
37842;DHT22;23682;53.508;10.476;2022-07-23T05:29:12;16.10;99.90
37842;DHT22;23682;53.508;10.476;2022-07-23T05:31:39;16.00;99.90
37842;DHT22;23682;53.508;10.476;2022-07-23T05:34:06;16.10;99.90
37842;DHT22;23682;53.508;10.476;2022-07-23T05:36:35;16.10;99.90
37842;DHT22;23682;53.508;10.476;2022-07-23T05:39:02;16.10;99.90
37842;DHT22;23682;53.508;10.476;2022-07-23T05:41:33;16.00;99.90
37842;DHT22;23682;53.508;10.476;2022-07-23T05:44:02;16.00;99.90
37842;DHT22;23682;53.508;10.476;2022-07-23T05:46:30;16.00;99.90
37842;DHT22;23682;53.508;10.476;2022-07-23T05:49:02;16.00;99.90
37842;DHT22;23682;53.508;10.476;2022-07-23T05:51:58;16.00;99.90
37842;DHT22;23682;53.508;10.476;2022-07-23T05:54:43;16.10;99.90
37842;DHT22;23682;53.508;10.476;2022-07-23T05:57:09;16.00;99.90
37842;DHT22;23682;53.508;10.476;2022-07-23T05:59:36;16.10;99.90
37842;DHT22;23682;53.508;10.476;2022-07-23T06:02:03;16.10;99.90
37842;DHT22;23682;53.508;10.476;2022-07-23T06:04:30;16.10;99.90
37842;DHT22;23682;53.508;10.476;2022-07-23T06:07:26;16.20;99.90
37842;DHT22;23682;53.508;10.476;2022-07-23T06:09:53;16.10;99.90
37842;DHT22;23682;53.508;10.476;2022-07-23T06:12:20;16.10;99.90
37842;DHT22;23682;53.508;10.476;2022-07-23T06:14:47;16.10;99.90
37842;DHT22;23682;53.508;10.476;2022-07-23T06:17:16;16.10;99.90
37842;DHT22;23682;53.508;10.476;2022-07-23T06:19:43;16.10;99.90
37842;DHT22;23682;53.508;10.476;2022-07-23T06:22:10;16.10;99.90
37842;DHT22;23682;53.508;10.476;2022-07-23T06:24:37;16.30;99.90
37842;DHT22;23682;53.508;10.476;2022-07-23T06:27:04;16.40;99.90
37842;DHT22;23682;53.508;10.476;2022-07-23T06:29:31;16.70;99.90
37842;DHT22;23682;53.508;10.476;2022-07-23T06:31:58;17.20;99.90
37842;DHT22;23682;53.508;10.476;2022-07-23T06:34:25;17.60;99.90
37842;DHT22;23682;53.508;10.476;2022-07-23T06:36:54;18.60;99.90
37842;DHT22;23682;53.508;10.476;2022-07-23T06:39:21;19.60;99.90
37842;DHT22;23682;53.508;10.476;2022-07-23T06:41:48;19.70;99.90
37842;DHT22;23682;53.508;10.476;2022-07-23T06:44:18;19.50;99.90
37842;DHT22;23682;53.508;10.476;2022-07-23T06:46:47;19.60;99.90
37842;DHT22;23682;53.508;10.476;2022-07-23T06:49:14;19.70;99.90
37842;DHT22;23682;53.508;10.476;2022-07-23T06:51:41;19.60;99.90
37842;DHT22;23682;53.508;10.476;2022-07-23T06:54:08;19.30;99.90
37842;DHT22;23682;53.508;10.476;2022-07-23T06:56:35;19.40;99.90
37842;DHT22;23682;53.508;10.476;2022-07-23T06:59:02;19.60;99.90
37842;DHT22;23682;53.508;10.476;2022-07-23T07:01:30;19.50;99.90
37842;DHT22;23682;53.508;10.476;2022-07-23T07:03:57;19.40;99.90
37842;DHT22;23682;53.508;10.476;2022-07-23T07:06:24;19.30;99.90
37842;DHT22;23682;53.508;10.476;2022-07-23T07:08:51;19.50;99.90
37842;DHT22;23682;53.508;10.476;2022-07-23T07:11:17;19.50;99.90
37842;DHT22;23682;53.508;10.476;2022-07-23T07:13:44;19.20;99.90
37842;DHT22;23682;53.508;10.476;2022-07-23T07:16:11;19.50;99.90
37842;DHT22;23682;53.508;10.476;2022-07-23T07:18:38;19.70;99.90
37842;DHT22;23682;53.508;10.476;2022-07-23T07:21:05;19.90;99.90
37842;DHT22;23682;53.508;10.476;2022-07-23T07:23:32;19.90;99.90
37842;DHT22;23682;53.508;10.476;2022-07-23T07:25:58;19.80;99.90
37842;DHT22;23682;53.508;10.476;2022-07-23T07:28:25;19.80;99.90
37842;DHT22;23682;53.508;10.476;2022-07-23T07:30:52;19.50;99.90
37842;DHT22;23682;53.508;10.476;2022-07-23T07:33:19;19.40;99.90
37842;DHT22;23682;53.508;10.476;2022-07-23T07:35:47;19.40;99.90
37842;DHT22;23682;53.508;10.476;2022-07-23T07:38:14;19.40;99.90
37842;DHT22;23682;53.508;10.476;2022-07-23T07:40:41;19.30;99.90
37842;DHT22;23682;53.508;10.476;2022-07-23T07:43:08;19.30;99.90
37842;DHT22;23682;53.508;10.476;2022-07-23T07:45:34;19.30;99.90
37842;DHT22;23682;53.508;10.476;2022-07-23T07:48:01;19.20;99.90
37842;DHT22;23682;53.508;10.476;2022-07-23T07:50:28;19.20;99.90
37842;DHT22;23682;53.508;10.476;2022-07-23T07:52:56;19.40;99.90
37842;DHT22;23682;53.508;10.476;2022-07-23T07:55:23;19.20;99.90
37842;DHT22;23682;53.508;10.476;2022-07-23T07:57:50;19.30;99.90
37842;DHT22;23682;53.508;10.476;2022-07-23T08:00:17;19.40;99.90
37842;DHT22;23682;53.508;10.476;2022-07-23T08:02:51;19.40;99.90
37842;DHT22;23682;53.508;10.476;2022-07-23T08:05:22;19.50;99.90
37842;DHT22;23682;53.508;10.476;2022-07-23T08:07:57;19.70;99.90
37842;DHT22;23682;53.508;10.476;2022-07-23T08:10:25;19.80;99.90
37842;DHT22;23682;53.508;10.476;2022-07-23T08:12:54;19.80;99.90
37842;DHT22;23682;53.508;10.476;2022-07-23T08:15:23;19.90;99.90
37842;DHT22;23682;53.508;10.476;2022-07-23T08:17:51;19.90;99.90
37842;DHT22;23682;53.508;10.476;2022-07-23T08:20:21;20.20;99.90
37842;DHT22;23682;53.508;10.476;2022-07-23T08:22:58;20.10;99.90
37842;DHT22;23682;53.508;10.476;2022-07-23T08:25:28;19.90;99.90
37842;DHT22;23682;53.508;10.476;2022-07-23T08:27:57;19.70;99.70
37842;DHT22;23682;53.508;10.476;2022-07-23T08:30:24;19.50;99.90
37842;DHT22;23682;53.508;10.476;2022-07-23T08:33:06;19.30;99.90
37842;DHT22;23682;53.508;10.476;2022-07-23T08:35:36;19.10;99.90
37842;DHT22;23682;53.508;10.476;2022-07-23T08:38:05;19.10;99.90
37842;DHT22;23682;53.508;10.476;2022-07-23T08:40:34;19.00;99.90
37842;DHT22;23682;53.508;10.476;2022-07-23T08:43:14;19.10;99.90
37842;DHT22;23682;53.508;10.476;2022-07-23T08:45:43;19.40;99.90
37842;DHT22;23682;53.508;10.476;2022-07-23T08:48:15;19.40;99.90
37842;DHT22;23682;53.508;10.476;2022-07-23T08:50:44;19.30;99.90
37842;DHT22;23682;53.508;10.476;2022-07-23T08:53:12;19.40;99.90
37842;DHT22;23682;53.508;10.476;2022-07-23T08:55:40;19.30;99.90
37842;DHT22;23682;53.508;10.476;2022-07-23T08:58:09;19.40;99.90
37842;DHT22;23682;53.508;10.476;2022-07-23T09:00:36;19.70;99.90
37842;DHT22;23682;53.508;10.476;2022-07-23T09:03:03;20.00;99.90
37842;DHT22;23682;53.508;10.476;2022-07-23T09:05:30;20.10;99.90
37842;DHT22;23682;53.508;10.476;2022-07-23T09:08:08;19.90;99.90
37842;DHT22;23682;53.508;10.476;2022-07-23T09:10:45;19.60;99.90
37842;DHT22;23682;53.508;10.476;2022-07-23T09:13:51;19.40;99.90
37842;DHT22;23682;53.508;10.476;2022-07-23T09:16:24;19.60;99.90
37842;DHT22;23682;53.508;10.476;2022-07-23T09:18:54;19.60;99.90
37842;DHT22;23682;53.508;10.476;2022-07-23T09:21:27;19.50;99.90
37842;DHT22;23682;53.508;10.476;2022-07-23T09:23:58;19.40;99.90
37842;DHT22;23682;53.508;10.476;2022-07-23T09:34:10;18.60;99.90
37842;DHT22;23682;53.508;10.476;2022-07-23T09:36:38;18.60;99.90
37842;DHT22;23682;53.508;10.476;2022-07-23T09:39:05;18.80;99.90
37842;DHT22;23682;53.508;10.476;2022-07-23T09:41:50;18.60;99.90
37842;DHT22;23682;53.508;10.476;2022-07-23T09:44:19;18.90;99.90
37842;DHT22;23682;53.508;10.476;2022-07-23T09:46:58;19.40;99.90
37842;DHT22;23682;53.508;10.476;2022-07-23T09:49:27;19.80;99.90
37842;DHT22;23682;53.508;10.476;2022-07-23T09:51:57;20.10;99.50
37842;DHT22;23682;53.508;10.476;2022-07-23T09:54:34;20.50;99.20
37842;DHT22;23682;53.508;10.476;2022-07-23T09:59:36;20.90;98.00
37842;DHT22;23682;53.508;10.476;2022-07-23T10:02:05;20.90;97.40
37842;DHT22;23682;53.508;10.476;2022-07-23T10:04:42;20.90;97.20
37842;DHT22;23682;53.508;10.476;2022-07-23T10:07:17;20.80;97.10
37842;DHT22;23682;53.508;10.476;2022-07-23T10:09:52;20.90;97.60
37842;DHT22;23682;53.508;10.476;2022-07-23T10:12:38;20.80;96.90
37842;DHT22;23682;53.508;10.476;2022-07-23T10:15:15;21.00;97.20
37842;DHT22;23682;53.508;10.476;2022-07-23T10:17:42;21.10;96.50
37842;DHT22;23682;53.508;10.476;2022-07-23T10:20:09;21.10;97.20
37842;DHT22;23682;53.508;10.476;2022-07-23T10:22:44;21.20;96.20
37842;DHT22;23682;53.508;10.476;2022-07-23T10:25:26;21.40;96.70
37842;DHT22;23682;53.508;10.476;2022-07-23T10:36:23;21.80;96.00
37842;DHT22;23682;53.508;10.476;2022-07-23T10:39:04;21.70;95.90
37842;DHT22;23682;53.508;10.476;2022-07-23T10:41:33;22.00;96.30
37842;DHT22;23682;53.508;10.476;2022-07-23T10:44:15;21.70;96.00
37842;DHT22;23682;53.508;10.476;2022-07-23T10:47:04;21.70;96.50
37842;DHT22;23682;53.508;10.476;2022-07-23T10:49:35;21.80;96.20
37842;DHT22;23682;53.508;10.476;2022-07-23T10:54:43;22.00;95.90
37842;DHT22;23682;53.508;10.476;2022-07-23T10:57:11;22.10;96.40
37842;DHT22;23682;53.508;10.476;2022-07-23T11:02:34;21.80;95.30
37842;DHT22;23682;53.508;10.476;2022-07-23T11:05:05;21.80;95.50
37842;DHT22;23682;53.508;10.476;2022-07-23T11:07:34;21.70;95.90
37842;DHT22;23682;53.508;10.476;2022-07-23T11:10:01;21.80;95.90
37842;DHT22;23682;53.508;10.476;2022-07-23T11:15:03;21.50;96.30
37842;DHT22;23682;53.508;10.476;2022-07-23T11:17:32;21.50;96.10
37842;DHT22;23682;53.508;10.476;2022-07-23T11:22:36;21.70;96.20
37842;DHT22;23682;53.508;10.476;2022-07-23T11:25:03;21.90;96.10
37842;DHT22;23682;53.508;10.476;2022-07-23T11:27:45;21.90;95.50
37842;DHT22;23682;53.508;10.476;2022-07-23T11:35:43;22.00;95.90
37842;DHT22;23682;53.508;10.476;2022-07-23T11:38:20;22.00;94.80
37842;DHT22;23682;53.508;10.476;2022-07-23T11:40:53;22.10;94.80
37842;DHT22;23682;53.508;10.476;2022-07-23T11:43:21;22.30;95.00
37842;DHT22;23682;53.508;10.476;2022-07-23T11:45:50;22.10;94.20
37842;DHT22;23682;53.508;10.476;2022-07-23T11:48:22;22.20;95.00
37842;DHT22;23682;53.508;10.476;2022-07-23T11:50:50;22.30;94.90
37842;DHT22;23682;53.508;10.476;2022-07-23T11:55:51;22.50;94.30
37842;DHT22;23682;53.508;10.476;2022-07-23T11:58:18;22.20;93.40
37842;DHT22;23682;53.508;10.476;2022-07-23T12:00:46;22.10;93.80
37842;DHT22;23682;53.508;10.476;2022-07-23T12:03:13;22.20;93.30
37842;DHT22;23682;53.508;10.476;2022-07-23T12:05:41;22.10;93.90
37842;DHT22;23682;53.508;10.476;2022-07-23T12:08:09;22.10;94.30
37842;DHT22;23682;53.508;10.476;2022-07-23T12:10:44;22.00;94.40
37842;DHT22;23682;53.508;10.476;2022-07-23T12:13:13;22.00;94.30
37842;DHT22;23682;53.508;10.476;2022-07-23T12:15:50;21.80;95.00
37842;DHT22;23682;53.508;10.476;2022-07-23T12:18:20;21.90;94.60
37842;DHT22;23682;53.508;10.476;2022-07-23T12:20:52;21.90;95.10
37842;DHT22;23682;53.508;10.476;2022-07-23T12:23:21;22.20;95.60
37842;DHT22;23682;53.508;10.476;2022-07-23T12:25:50;22.20;95.70
37842;DHT22;23682;53.508;10.476;2022-07-23T12:28:26;22.10;95.10
37842;DHT22;23682;53.508;10.476;2022-07-23T12:30:54;22.10;95.10
37842;DHT22;23682;53.508;10.476;2022-07-23T12:33:25;22.20;94.70
37842;DHT22;23682;53.508;10.476;2022-07-23T12:35:54;22.30;94.80
37842;DHT22;23682;53.508;10.476;2022-07-23T12:38:23;22.10;95.00
37842;DHT22;23682;53.508;10.476;2022-07-23T12:43:26;22.20;95.60
37842;DHT22;23682;53.508;10.476;2022-07-23T12:48:37;22.10;95.40
37842;DHT22;23682;53.508;10.476;2022-07-23T12:51:07;22.20;95.70
37842;DHT22;23682;53.508;10.476;2022-07-23T12:53:46;22.10;94.90
37842;DHT22;23682;53.508;10.476;2022-07-23T13:01:22;21.90;95.70
37842;DHT22;23682;53.508;10.476;2022-07-23T13:04:03;21.90;95.80
37842;DHT22;23682;53.508;10.476;2022-07-23T13:06:41;22.00;95.50
37842;DHT22;23682;53.508;10.476;2022-07-23T13:09:12;21.90;95.40
37842;DHT22;23682;53.508;10.476;2022-07-23T13:11:42;21.80;95.60
37842;DHT22;23682;53.508;10.476;2022-07-23T13:14:08;21.60;96.10
37842;DHT22;23682;53.508;10.476;2022-07-23T13:16:36;21.80;96.10
37842;DHT22;23682;53.508;10.476;2022-07-23T13:19:04;22.10;95.80
37842;DHT22;23682;53.508;10.476;2022-07-23T13:21:37;22.20;95.90
37842;DHT22;23682;53.508;10.476;2022-07-23T13:24:04;22.30;95.20
37842;DHT22;23682;53.508;10.476;2022-07-23T13:26:35;22.00;94.60
37842;DHT22;23682;53.508;10.476;2022-07-23T13:29:04;22.10;95.20
37842;DHT22;23682;53.508;10.476;2022-07-23T13:31:36;22.40;94.90
37842;DHT22;23682;53.508;10.476;2022-07-23T13:34:04;22.50;95.00
37842;DHT22;23682;53.508;10.476;2022-07-23T13:36:33;22.30;94.70
37842;DHT22;23682;53.508;10.476;2022-07-23T13:39:01;22.30;94.90
37842;DHT22;23682;53.508;10.476;2022-07-23T13:41:28;22.30;95.30
37842;DHT22;23682;53.508;10.476;2022-07-23T13:43:56;22.40;94.20
37842;DHT22;23682;53.508;10.476;2022-07-23T13:46:23;22.20;94.60
37842;DHT22;23682;53.508;10.476;2022-07-23T13:48:51;22.10;94.50
37842;DHT22;23682;53.508;10.476;2022-07-23T13:51:17;22.10;94.20
37842;DHT22;23682;53.508;10.476;2022-07-23T13:53:46;22.10;94.20
37842;DHT22;23682;53.508;10.476;2022-07-23T13:56:13;22.00;94.80
37842;DHT22;23682;53.508;10.476;2022-07-23T13:58:40;22.00;94.50
37842;DHT22;23682;53.508;10.476;2022-07-23T14:01:07;21.90;94.60
37842;DHT22;23682;53.508;10.476;2022-07-23T14:03:34;21.70;95.10
37842;DHT22;23682;53.508;10.476;2022-07-23T14:06:01;21.80;95.20
37842;DHT22;23682;53.508;10.476;2022-07-23T14:08:28;21.90;95.20
37842;DHT22;23682;53.508;10.476;2022-07-23T14:10:55;21.70;94.90
37842;DHT22;23682;53.508;10.476;2022-07-23T14:13:25;21.60;95.10
37842;DHT22;23682;53.508;10.476;2022-07-23T14:15:52;21.70;95.40
37842;DHT22;23682;53.508;10.476;2022-07-23T14:18:19;21.80;95.20
37842;DHT22;23682;53.508;10.476;2022-07-23T14:20:47;22.00;95.00
37842;DHT22;23682;53.508;10.476;2022-07-23T14:23:14;22.00;94.90
37842;DHT22;23682;53.508;10.476;2022-07-23T14:25:41;22.00;94.70
37842;DHT22;23682;53.508;10.476;2022-07-23T14:28:08;22.10;94.00
37842;DHT22;23682;53.508;10.476;2022-07-23T14:30:35;22.00;93.80
37842;DHT22;23682;53.508;10.476;2022-07-23T14:33:02;22.10;94.40
37842;DHT22;23682;53.508;10.476;2022-07-23T14:35:29;22.10;94.20
37842;DHT22;23682;53.508;10.476;2022-07-23T14:37:56;22.20;94.10
37842;DHT22;23682;53.508;10.476;2022-07-23T14:40:23;21.80;94.20
37842;DHT22;23682;53.508;10.476;2022-07-23T14:42:50;21.80;94.50
37842;DHT22;23682;53.508;10.476;2022-07-23T14:45:17;21.60;95.00
37842;DHT22;23682;53.508;10.476;2022-07-23T14:47:45;21.50;94.90
37842;DHT22;23682;53.508;10.476;2022-07-23T14:50:14;21.50;95.00
37842;DHT22;23682;53.508;10.476;2022-07-23T14:52:41;21.40;94.60
37842;DHT22;23682;53.508;10.476;2022-07-23T14:55:09;21.70;94.90
37842;DHT22;23682;53.508;10.476;2022-07-23T14:57:35;21.90;94.60
37842;DHT22;23682;53.508;10.476;2022-07-23T15:00:04;21.80;94.60
37842;DHT22;23682;53.508;10.476;2022-07-23T15:02:35;21.80;94.80
37842;DHT22;23682;53.508;10.476;2022-07-23T15:05:02;21.70;94.50
37842;DHT22;23682;53.508;10.476;2022-07-23T15:07:33;21.60;94.60
37842;DHT22;23682;53.508;10.476;2022-07-23T15:10:00;21.70;94.70
37842;DHT22;23682;53.508;10.476;2022-07-23T15:12:28;21.50;94.80
37842;DHT22;23682;53.508;10.476;2022-07-23T15:14:55;21.70;95.00
37842;DHT22;23682;53.508;10.476;2022-07-23T15:17:22;21.70;94.50
37842;DHT22;23682;53.508;10.476;2022-07-23T15:19:52;21.60;94.20
37842;DHT22;23682;53.508;10.476;2022-07-23T15:22:19;21.50;94.50
37842;DHT22;23682;53.508;10.476;2022-07-23T15:24:46;21.40;94.90
37842;DHT22;23682;53.508;10.476;2022-07-23T15:27:13;21.60;94.70
37842;DHT22;23682;53.508;10.476;2022-07-23T15:29:39;21.60;94.70
37842;DHT22;23682;53.508;10.476;2022-07-23T15:32:06;21.70;94.70
37842;DHT22;23682;53.508;10.476;2022-07-23T15:34:33;21.70;95.20
37842;DHT22;23682;53.508;10.476;2022-07-23T15:37:03;21.80;95.20
37842;DHT22;23682;53.508;10.476;2022-07-23T15:39:39;21.70;94.50
37842;DHT22;23682;53.508;10.476;2022-07-23T15:42:07;21.80;94.00
37842;DHT22;23682;53.508;10.476;2022-07-23T15:44:40;21.80;93.20
37842;DHT22;23682;53.508;10.476;2022-07-23T15:47:12;21.70;93.50
37842;DHT22;23682;53.508;10.476;2022-07-23T15:49:39;21.70;94.00
37842;DHT22;23682;53.508;10.476;2022-07-23T15:52:06;21.60;94.00
37842;DHT22;23682;53.508;10.476;2022-07-23T15:54:37;21.70;94.50
37842;DHT22;23682;53.508;10.476;2022-07-23T15:57:06;21.70;94.20
37842;DHT22;23682;53.508;10.476;2022-07-23T15:59:33;21.70;94.60
37842;DHT22;23682;53.508;10.476;2022-07-23T16:02:00;21.50;94.20
37842;DHT22;23682;53.508;10.476;2022-07-23T16:04:27;21.40;94.40
37842;DHT22;23682;53.508;10.476;2022-07-23T16:06:54;21.40;94.10
37842;DHT22;23682;53.508;10.476;2022-07-23T16:09:22;21.50;94.30
37842;DHT22;23682;53.508;10.476;2022-07-23T16:11:49;21.50;94.10
37842;DHT22;23682;53.508;10.476;2022-07-23T16:14:16;21.60;94.30